Time;durP1;ratioP1;P1;durP2;ratioP2;P2;SDS_P1;SDS_P2;PMS_P1;PMS_P2;Temp;Humidity;BMP_temperature;BMP_pressure;BME280_temperature;BME280_humidity;BME280_pressure;Samples;Min_cycle;Max_cycle;Signal;HPM_P1;HPM_P2
2022/09/28 00:01:37;;;;;;;9.75;3.78;;;7.50;99.90;;;;;;4997498;28;20030;-63
2022/09/28 00:04:02;;;;;;;5.68;4.18;;;7.50;99.90;;;;;;4998824;28;20061;-62
2022/09/28 00:06:29;;;;;;;4.93;3.72;;;7.60;99.90;;;;;;4999793;28;20023;-62
2022/09/28 00:08:55;;;;;;;4.47;4.07;;;7.60;99.90;;;;;;4998948;28;20649;-60
2022/09/28 00:11:22;;;;;;;4.57;4.18;;;7.60;99.90;;;;;;5001462;28;20049;-62
2022/09/28 00:13:51;;;;;;;4.43;3.92;;;7.60;99.90;;;;;;5001748;28;20033;-62
2022/09/28 00:16:20;;;;;;;9.52;4.78;;;7.50;99.90;;;;;;4997311;28;20092;-62
2022/09/28 00:18:46;;;;;;;5.70;4.60;;;7.50;99.90;;;;;;5000169;28;20359;-61
2022/09/28 00:21:14;;;;;;;6.70;4.50;;;7.50;99.90;;;;;;4999195;28;20030;-63
2022/09/28 00:26:27;;;;;;;10.65;6.30;;;7.60;99.90;;;;;;4997310;28;20053;-63
2022/09/28 00:28:55;;;;;;;7.30;6.60;;;7.60;99.90;;;;;;5001793;28;20058;-62
2022/09/28 00:31:21;;;;;;;11.93;6.15;;;7.60;99.90;;;;;;5000677;28;20053;-62
2022/09/28 00:33:51;;;;;;;12.48;6.50;;;7.60;99.90;;;;;;4999938;28;20023;-61
2022/09/28 00:36:17;;;;;;;8.20;6.83;;;7.60;99.90;;;;;;4999389;28;20100;-62
2022/09/28 00:38:43;;;;;;;8.00;6.13;;;7.60;99.90;;;;;;4999993;28;20081;-62
2022/09/28 00:41:10;;;;;;;9.90;5.47;;;7.60;99.90;;;;;;4998272;28;20046;-62
2022/09/28 00:43:36;;;;;;;9.68;5.65;;;7.60;99.90;;;;;;5001299;28;20575;-61
2022/09/28 00:46:05;;;;;;;8.23;5.20;;;7.60;99.90;;;;;;5000378;28;20022;-62
2022/09/28 00:48:35;;;;;;;6.43;5.18;;;7.50;99.90;;;;;;5000006;28;20029;-61
2022/09/28 00:51:05;;;;;;;6.28;4.50;;;7.40;99.90;;;;;;4998962;28;20574;-62
2022/09/28 00:53:33;;;;;;;5.72;5.22;;;7.40;99.90;;;;;;4996918;28;20045;-61
2022/09/28 00:56:10;;;;;;;5.25;4.75;;;7.40;99.90;;;;;;4998050;28;20033;-60
2022/09/28 00:58:43;;;;;;;4.95;4.53;;;7.40;99.90;;;;;;5004961;28;20104;-61
2022/09/28 01:01:09;;;;;;;10.25;5.50;;;7.40;99.90;;;;;;4998288;28;20087;-61
2022/09/28 01:03:36;;;;;;;8.23;5.03;;;7.30;99.90;;;;;;4999302;28;20035;-61
2022/09/28 01:06:03;;;;;;;7.28;5.78;;;7.20;99.90;;;;;;4995986;28;20406;-62
2022/09/28 01:08:31;;;;;;;7.60;5.47;;;7.20;99.90;;;;;;5002740;28;20041;-61
2022/09/28 01:10:58;;;;;;;6.03;5.45;;;7.10;99.90;;;;;;5000202;28;20030;-62
2022/09/28 01:13:25;;;;;;;6.70;5.10;;;7.10;99.90;;;;;;4994295;28;20045;-61
2022/09/28 01:16:19;;;;;;;10.10;5.38;;;7.10;99.90;;;;;;4997335;28;20026;-61
2022/09/28 01:19:31;;;;;;;6.53;5.70;;;7.10;99.90;;;;;;4996284;28;20479;-61
2022/09/28 01:22:16;;;;;;;8.70;5.18;;;7.00;99.90;;;;;;4994831;28;20048;-61
2022/09/28 01:24:46;;;;;;;6.05;5.55;;;7.00;99.90;;;;;;4997988;28;20034;-61
2022/09/28 01:27:35;;;;;;;7.33;6.40;;;7.00;99.90;;;;;;4999189;28;20075;-62
2022/09/28 01:30:14;;;;;;;12.15;6.15;;;7.00;99.90;;;;;;4991863;28;20061;-61
2022/09/28 01:32:54;;;;;;;8.88;6.35;;;7.00;99.90;;;;;;4999882;28;20040;-61
2022/09/28 01:35:34;;;;;;;10.88;7.28;;;7.00;99.90;;;;;;4996413;28;20109;-62
2022/09/28 01:38:08;;;;;;;8.55;7.35;;;7.00;99.90;;;;;;4996657;28;20026;-62
2022/09/28 01:40:35;;;;;;;10.23;7.82;;;7.10;99.90;;;;;;4998289;28;20030;-61
2022/09/28 01:43:16;;;;;;;8.93;7.63;;;7.20;99.90;;;;;;4994678;28;21378;-62
2022/09/28 01:46:09;;;;;;;10.63;7.32;;;7.20;99.90;;;;;;4995820;28;20026;-62
2022/09/28 01:48:45;;;;;;;9.38;7.22;;;7.20;99.90;;;;;;5000066;28;20034;-62
2022/09/28 01:51:20;;;;;;;7.03;6.32;;;7.20;99.90;;;;;;4986759;28;20604;-62
2022/09/28 01:53:54;;;;;;;11.27;6.85;;;7.20;99.90;;;;;;5000407;28;20046;-61
2022/09/28 01:56:33;;;;;;;14.68;7.68;;;7.20;99.90;;;;;;4999521;28;20038;-62
2022/09/28 01:59:04;;;;;;;9.48;7.45;;;7.20;99.90;;;;;;4995820;28;20041;-62
2022/09/28 02:01:38;;;;;;;13.45;8.13;;;7.10;99.90;;;;;;5000097;28;20026;-60
2022/09/28 02:04:13;;;;;;;11.10;8.45;;;7.10;99.90;;;;;;4996352;28;20175;-61
2022/09/28 02:06:56;;;;;;;13.73;8.48;;;7.10;99.90;;;;;;4998105;28;20029;-62
2022/09/28 02:09:33;;;;;;;13.88;8.27;;;7.20;99.90;;;;;;4994671;28;20052;-62
2022/09/28 02:12:08;;;;;;;9.45;8.50;;;7.10;99.90;;;;;;4992789;28;20034;-61
2022/09/28 02:14:38;;;;;;;13.10;8.82;;;7.10;99.90;;;;;;4994654;28;20081;-62
2022/09/28 02:17:04;;;;;;;10.30;9.38;;;7.10;99.90;;;;;;4996945;28;20026;-61
2022/09/28 02:19:31;;;;;;;11.73;9.90;;;7.20;99.90;;;;;;4998648;28;20190;-62
2022/09/28 02:22:00;;;;;;;12.02;9.52;;;7.20;99.90;;;;;;4997772;28;20029;-62
2022/09/28 02:24:58;;;;;;;11.55;8.65;;;7.20;99.90;;;;;;4996650;28;20026;-62
2022/09/28 02:27:35;;;;;;;13.25;8.63;;;7.20;99.90;;;;;;4990051;28;20037;-62
2022/09/28 02:30:03;;;;;;;11.43;9.23;;;7.30;99.90;;;;;;4995561;28;20521;-60
2022/09/28 02:32:32;;;;;;;12.77;8.80;;;7.30;99.90;;;;;;4995197;28;20084;-62
2022/09/28 02:34:58;;;;;;;10.48;9.48;;;7.30;99.90;;;;;;4991239;28;20557;-61
2022/09/28 02:37:25;;;;;;;12.07;9.52;;;7.30;99.90;;;;;;4998815;28;20038;-61
2022/09/28 02:39:51;;;;;;;10.15;9.18;;;7.40;99.90;;;;;;4995605;28;20430;-62
2022/09/28 02:42:22;;;;;;;12.80;8.60;;;7.40;99.90;;;;;;4997891;28;20034;-62
2022/09/28 02:45:18;;;;;;;13.05;9.27;;;7.40;99.90;;;;;;4996685;28;20030;-62
2022/09/28 02:48:02;;;;;;;14.35;9.65;;;7.40;99.90;;;;;;4995375;28;20444;-61
2022/09/28 02:50:44;;;;;;;9.70;8.82;;;7.40;99.90;;;;;;4996494;28;20042;-61
2022/09/28 02:53:19;;;;;;;9.98;7.40;;;7.40;99.90;;;;;;4999482;28;20112;-61
2022/09/28 02:56:05;;;;;;;11.02;7.65;;;7.40;99.90;;;;;;4995185;28;20041;-62
2022/09/28 02:58:56;;;;;;;13.05;8.25;;;7.40;99.90;;;;;;4993504;28;20030;-61
2022/09/28 03:01:53;;;;;;;9.93;8.38;;;7.50;99.90;;;;;;4997537;28;20062;-61
2022/09/28 03:04:41;;;;;;;11.82;9.25;;;7.50;99.90;;;;;;4997443;28;20038;-61
2022/09/28 03:07:21;;;;;;;11.40;9.52;;;7.50;99.90;;;;;;4994015;28;20104;-61
2022/09/28 03:10:00;;;;;;;13.52;9.52;;;7.50;99.90;;;;;;4998817;28;20037;-63
2022/09/28 03:12:28;;;;;;;13.23;10.52;;;7.50;99.90;;;;;;5000559;28;20034;-61
2022/09/28 03:15:07;;;;;;;11.75;9.45;;;7.50;99.90;;;;;;5004618;28;20041;-61
2022/09/28 03:17:33;;;;;;;18.38;9.70;;;7.50;99.90;;;;;;5004731;28;20518;-61
2022/09/28 03:19:59;;;;;;;31.85;10.65;;;7.50;99.90;;;;;;5001894;28;20034;-61
2022/09/28 03:22:24;;;;;;;12.05;9.77;;;7.50;99.90;;;;;;5005077;28;20034;-62
2022/09/28 03:24:50;;;;;;;12.50;8.90;;;7.50;99.90;;;;;;5001991;28;20022;-63
2022/09/28 03:27:15;;;;;;;9.82;8.73;;;7.50;99.90;;;;;;5001053;28;20502;-62
2022/09/28 03:29:41;;;;;;;8.38;7.57;;;7.50;99.90;;;;;;5002844;28;20038;-61
2022/09/28 03:32:07;;;;;;;8.68;7.22;;;7.50;99.90;;;;;;4999619;28;20038;-60
2022/09/28 03:34:34;;;;;;;8.88;7.47;;;7.50;99.90;;;;;;4998669;28;20026;-62
2022/09/28 03:37:00;;;;;;;10.45;7.07;;;7.50;99.90;;;;;;4998859;28;20028;-62
2022/09/28 03:39:25;;;;;;;9.63;7.47;;;7.50;99.90;;;;;;5001189;28;20018;-62
2022/09/28 03:41:51;;;;;;;8.77;6.03;;;7.50;99.90;;;;;;5003025;28;20030;-62
2022/09/28 03:44:16;;;;;;;9.50;6.40;;;7.40;99.90;;;;;;4997961;28;20033;-62
2022/09/28 03:46:42;;;;;;;13.00;6.88;;;7.50;99.90;;;;;;5004063;28;20500;-62
2022/09/28 03:49:09;;;;;;;9.10;8.20;;;7.50;99.90;;;;;;5000608;28;20030;-63
2022/09/28 03:51:34;;;;;;;10.57;7.20;;;7.50;99.90;;;;;;5001212;28;20026;-63
2022/09/28 03:54:00;;;;;;;12.90;8.05;;;7.50;99.90;;;;;;5000331;28;20026;-62
2022/09/28 03:56:25;;;;;;;7.45;6.70;;;7.50;99.90;;;;;;4998823;28;20058;-62
2022/09/28 03:58:51;;;;;;;7.18;6.47;;;7.50;99.90;;;;;;4997966;28;20034;-62
2022/09/28 04:01:17;;;;;;;11.50;6.68;;;7.50;99.90;;;;;;4998912;28;20030;-62
2022/09/28 04:03:43;;;;;;;8.48;6.43;;;7.40;99.90;;;;;;5001198;28;20488;-62
2022/09/28 04:06:09;;;;;;;10.60;7.10;;;7.40;99.90;;;;;;4998185;28;20056;-61
2022/09/28 04:08:34;;;;;;;9.00;6.65;;;7.40;99.90;;;;;;4996310;28;20425;-62
2022/09/28 04:11:01;;;;;;;7.47;6.20;;;7.40;99.90;;;;;;4999028;28;20030;-62
2022/09/28 04:13:28;;;;;;;7.50;6.80;;;7.40;99.90;;;;;;5002572;28;20038;-62
2022/09/28 04:15:55;;;;;;;9.90;6.53;;;7.40;99.90;;;;;;5004682;28;20144;-61
2022/09/28 04:18:22;;;;;;;7.47;6.78;;;7.40;99.90;;;;;;5001869;28;20081;-62
2022/09/28 04:20:56;;;;;;;10.15;7.07;;;7.40;99.90;;;;;;4998728;28;20088;-61
2022/09/28 04:23:21;;;;;;;11.40;6.95;;;7.40;99.90;;;;;;4996562;28;20065;-62
2022/09/28 04:25:51;;;;;;;8.13;5.90;;;7.40;99.90;;;;;;5002979;28;20026;-61
2022/09/28 04:31:00;;;;;;;12.50;5.53;;;7.40;99.90;;;;;;4995521;28;20041;-61
2022/09/28 04:33:26;;;;;;;9.30;5.47;;;7.40;99.90;;;;;;4997386;28;20338;-61
2022/09/28 04:35:51;;;;;;;13.30;5.45;;;7.40;99.90;;;;;;5001386;28;20026;-61
2022/09/28 04:38:17;;;;;;;7.32;4.50;;;7.40;99.90;;;;;;4995535;28;20125;-62
2022/09/28 04:40:43;;;;;;;8.55;5.45;;;7.40;99.90;;;;;;5003795;28;20030;-62
2022/09/28 04:43:08;;;;;;;11.88;6.18;;;7.40;99.90;;;;;;5000653;28;20464;-61
2022/09/28 04:45:34;;;;;;;7.35;5.05;;;7.40;99.90;;;;;;4997641;28;20041;-62
2022/09/28 04:48:00;;;;;;;11.02;5.38;;;7.40;99.90;;;;;;4999967;28;20126;-62
2022/09/28 04:50:25;;;;;;;7.65;4.78;;;7.40;99.90;;;;;;4998316;28;20039;-63
2022/09/28 04:52:51;;;;;;;7.15;4.80;;;7.40;99.90;;;;;;5002558;28;20022;-61
2022/09/28 04:55:16;;;;;;;7.53;4.80;;;7.40;99.90;;;;;;4997202;28;20042;-62
2022/09/28 04:57:42;;;;;;;7.72;5.75;;;7.40;99.90;;;;;;4998314;28;20057;-63
2022/09/28 05:00:09;;;;;;;5.97;4.55;;;7.40;99.90;;;;;;4997675;28;20092;-61
2022/09/28 05:02:35;;;;;;;7.93;4.97;;;7.40;99.90;;;;;;4998765;28;20034;-60
2022/09/28 05:05:00;;;;;;;5.70;4.72;;;7.50;99.90;;;;;;4998582;28;20037;-62
2022/09/28 05:07:26;;;;;;;7.68;4.25;;;7.40;99.90;;;;;;4997120;28;20557;-62
2022/09/28 05:09:53;;;;;;;9.23;4.45;;;7.40;99.90;;;;;;4996108;28;20145;-62
2022/09/28 05:12:19;;;;;;;6.10;4.45;;;7.40;99.90;;;;;;4997031;28;20469;-62
2022/09/28 05:14:45;;;;;;;4.95;4.28;;;7.50;99.90;;;;;;4997937;28;20050;-61
2022/09/28 05:17:10;;;;;;;17.13;4.82;;;7.50;99.90;;;;;;4997491;28;20025;-62
2022/09/28 05:19:36;;;;;;;16.30;5.93;;;7.50;99.90;;;;;;4994313;28;20039;-62
2022/09/28 05:22:03;;;;;;;5.43;4.57;;;7.50;99.90;;;;;;4998739;28;20742;-61
2022/09/28 05:24:31;;;;;;;6.13;4.35;;;7.50;99.90;;;;;;4999366;28;20053;-60
2022/09/28 05:26:57;;;;;;;11.55;5.25;;;7.50;99.90;;;;;;4998052;28;20066;-61
2022/09/28 05:29:23;;;;;;;9.60;5.50;;;7.50;99.90;;;;;;4997462;28;20577;-61
2022/09/28 05:31:48;;;;;;;7.20;5.55;;;7.50;99.90;;;;;;4995496;28;20026;-61
2022/09/28 05:34:14;;;;;;;6.97;5.28;;;7.50;99.90;;;;;;4997712;28;20049;-62
2022/09/28 05:36:41;;;;;;;6.93;5.72;;;7.50;99.90;;;;;;4999131;28;20386;-62
2022/09/28 05:39:08;;;;;;;8.35;5.90;;;7.50;99.90;;;;;;5001400;28;20078;-60
2022/09/28 05:41:34;;;;;;;6.65;6.05;;;7.40;99.90;;;;;;5002137;28;20524;-61
2022/09/28 05:43:59;;;;;;;7.60;6.22;;;7.40;99.90;;;;;;4995147;28;20026;-61
2022/09/28 05:46:25;;;;;;;11.93;7.00;;;7.40;99.90;;;;;;4998146;28;20513;-62
2022/09/28 05:48:54;;;;;;;11.20;7.30;;;7.40;99.90;;;;;;5000048;28;20510;-61
2022/09/28 05:51:20;;;;;;;20.02;8.07;;;7.40;99.90;;;;;;4995078;28;20367;-61
2022/09/28 05:53:45;;;;;;;16.27;7.30;;;7.50;99.90;;;;;;4993268;28;20402;-62
2022/09/28 05:56:11;;;;;;;14.00;6.93;;;7.50;99.90;;;;;;4995091;28;20042;-61
2022/09/28 05:58:37;;;;;;;11.65;6.63;;;7.50;99.90;;;;;;5000927;28;20038;-61
2022/09/28 06:01:03;;;;;;;18.00;6.70;;;7.60;99.90;;;;;;4999440;28;20064;-62
2022/09/28 06:03:28;;;;;;;10.52;5.80;;;7.60;99.90;;;;;;4997444;28;20512;-61
2022/09/28 06:05:54;;;;;;;8.02;6.22;;;7.60;99.90;;;;;;4998488;28;20026;-61
2022/09/28 06:08:20;;;;;;;10.57;6.82;;;7.60;99.90;;;;;;4995708;28;20044;-61
2022/09/28 06:10:45;;;;;;;9.75;6.57;;;7.60;99.90;;;;;;4996796;28;20025;-62
2022/09/28 06:13:11;;;;;;;7.70;5.78;;;7.60;99.90;;;;;;4997628;28;20048;-60
2022/09/28 06:15:38;;;;;;;15.48;6.88;;;7.70;99.90;;;;;;4997424;28;20030;-61
2022/09/28 06:18:05;;;;;;;10.13;6.38;;;7.60;99.90;;;;;;4991583;28;20080;-62
2022/09/28 06:20:34;;;;;;;17.20;6.45;;;7.70;99.90;;;;;;4997636;28;20118;-61
2022/09/28 06:22:59;;;;;;;10.15;5.93;;;7.70;99.90;;;;;;4993774;28;20121;-61
2022/09/28 06:25:26;;;;;;;10.25;6.05;;;7.70;99.90;;;;;;4997024;28;20125;-61
2022/09/28 06:28:00;;;;;;;6.13;5.20;;;7.70;99.90;;;;;;4995236;28;20033;-62
2022/09/28 06:30:27;;;;;;;6.00;5.00;;;7.70;99.90;;;;;;4998778;28;20034;-61
2022/09/28 06:32:55;;;;;;;9.23;5.35;;;7.70;99.90;;;;;;5000933;28;20033;-61
2022/09/28 06:35:21;;;;;;;6.30;5.18;;;7.70;99.90;;;;;;4994493;28;20034;-61
2022/09/28 06:37:47;;;;;;;10.25;5.07;;;7.80;99.90;;;;;;4996144;28;20506;-60
2022/09/28 06:40:12;;;;;;;13.68;5.90;;;7.80;99.90;;;;;;4994793;28;20080;-61
2022/09/28 06:42:38;;;;;;;5.85;5.10;;;7.80;99.90;;;;;;5000556;28;20038;-62
2022/09/28 06:45:05;;;;;;;8.07;5.30;;;7.90;99.90;;;;;;5002053;28;20044;-60
2022/09/28 06:47:32;;;;;;;8.65;5.88;;;7.90;99.90;;;;;;5000171;28;20591;-61
2022/09/28 06:49:58;;;;;;;15.68;5.45;;;7.90;99.90;;;;;;4999938;28;20841;-59
2022/09/28 06:52:24;;;;;;;9.95;5.38;;;8.00;99.90;;;;;;5000080;28;20042;-61
2022/09/28 06:54:50;;;;;;;9.82;4.68;;;8.00;99.90;;;;;;4997724;28;20027;-63
2022/09/28 06:57:16;;;;;;;7.72;4.65;;;8.00;99.90;;;;;;4998974;28;20121;-64
2022/09/28 06:59:42;;;;;;;9.10;4.63;;;8.00;99.90;;;;;;5001769;28;20419;-61
2022/09/28 07:02:11;;;;;;;8.95;5.47;;;8.00;99.90;;;;;;4999460;28;20061;-60
2022/09/28 07:04:40;;;;;;;6.05;4.63;;;8.10;99.90;;;;;;4997801;28;20046;-61
2022/09/28 07:07:10;;;;;;;5.75;4.53;;;8.00;99.90;;;;;;5005718;28;20128;-62
2022/09/28 07:09:36;;;;;;;6.05;5.28;;;8.10;99.90;;;;;;5002654;28;20042;-61
2022/09/28 07:12:08;;;;;;;7.45;5.25;;;8.20;99.90;;;;;;5002101;28;20075;-62
2022/09/28 07:14:35;;;;;;;8.07;5.15;;;8.30;99.90;;;;;;5002997;28;20041;-61
2022/09/28 07:17:02;;;;;;;5.30;4.22;;;8.30;99.90;;;;;;5002045;28;20484;-62
2022/09/28 07:19:27;;;;;;;9.18;4.60;;;8.40;99.90;;;;;;5000379;28;20045;-62
2022/09/28 07:21:53;;;;;;;6.85;4.15;;;8.50;99.90;;;;;;4999267;28;20554;-61
2022/09/28 07:24:19;;;;;;;4.18;3.42;;;8.50;99.90;;;;;;4999561;28;20025;-62
2022/09/28 07:26:44;;;;;;;5.40;3.58;;;8.50;99.90;;;;;;4999965;28;20081;-61
2022/09/28 07:29:11;;;;;;;5.97;2.83;;;8.60;99.90;;;;;;5001055;28;20034;-61
2022/09/28 07:31:38;;;;;;;4.65;3.22;;;8.60;99.90;;;;;;5000590;28;20066;-60
2022/09/28 07:34:04;;;;;;;4.40;3.65;;;8.70;99.90;;;;;;5000126;28;20034;-61
2022/09/28 07:36:34;;;;;;;5.00;2.78;;;8.70;99.90;;;;;;5002178;28;20045;-60
2022/09/28 07:39:00;;;;;;;4.10;2.70;;;8.80;99.90;;;;;;4999274;28;20839;-62
2022/09/28 07:41:32;;;;;;;5.82;2.50;;;8.90;99.90;;;;;;4999643;28;20026;-61
2022/09/28 07:44:04;;;;;;;4.43;2.25;;;9.10;99.90;;;;;;5000896;28;20037;-61
2022/09/28 07:46:30;;;;;;;2.17;1.85;;;9.40;99.90;;;;;;4998296;28;20030;-62
2022/09/28 07:48:57;;;;;;;2.30;1.42;;;9.60;99.90;;;;;;4997365;28;20045;-61
2022/09/28 07:51:22;;;;;;;1.58;1.13;;;9.90;99.90;;;;;;5000954;28;20453;-61
2022/09/28 07:53:48;;;;;;;2.88;1.00;;;10.00;99.90;;;;;;4998846;28;20062;-61
2022/09/28 07:56:16;;;;;;;0.82;0.80;;;10.20;99.90;;;;;;4998271;28;20050;-62
2022/09/28 07:58:42;;;;;;;0.95;0.77;;;10.20;99.90;;;;;;5003195;28;20041;-62
2022/09/28 08:01:10;;;;;;;1.52;0.90;;;10.20;99.90;;;;;;5001746;28;20461;-61
2022/09/28 08:03:36;;;;;;;1.20;0.77;;;10.10;99.90;;;;;;4999598;28;20617;-60
2022/09/28 08:06:05;;;;;;;11.30;1.05;;;10.00;99.90;;;;;;4996348;28;20034;-60
2022/09/28 08:08:33;;;;;;;1.98;1.05;;;9.90;99.90;;;;;;4999641;28;20230;-60
2022/09/28 08:10:58;;;;;;;1.00;0.70;;;9.80;99.90;;;;;;4997294;28;20028;-61
2022/09/28 08:13:24;;;;;;;0.80;0.75;;;9.80;99.90;;;;;;5000197;28;20391;-61
2022/09/28 08:15:54;;;;;;;0.80;0.60;;;9.80;99.90;;;;;;4999090;28;20034;-61
2022/09/28 08:18:20;;;;;;;1.52;0.63;;;9.80;99.90;;;;;;4996446;28;20022;-61
2022/09/28 08:23:30;;;;;;;1.67;0.82;;;9.90;99.90;;;;;;4997633;28;20093;-61
2022/09/28 08:25:56;;;;;;;1.00;0.70;;;10.00;99.90;;;;;;4996504;28;20034;-60
2022/09/28 08:28:23;;;;;;;1.73;0.90;;;10.00;99.90;;;;;;4998197;28;20044;-62
2022/09/28 08:30:49;;;;;;;4.10;0.80;;;9.90;99.90;;;;;;5002882;28;20037;-61
2022/09/28 08:33:16;;;;;;;0.88;0.82;;;9.80;99.90;;;;;;4996884;28;20434;-61
2022/09/28 08:35:42;;;;;;;1.00;0.90;;;9.80;99.90;;;;;;4996773;28;20073;-61
2022/09/28 08:38:09;;;;;;;0.80;0.80;;;9.80;99.90;;;;;;4998024;28;20804;-60
2022/09/28 08:40:54;;;;;;;0.82;0.80;;;9.70;99.90;;;;;;4997584;28;20042;-60
2022/09/28 08:43:38;;;;;;;1.10;0.90;;;9.60;99.90;;;;;;4998563;28;20555;-61
2022/09/28 08:46:05;;;;;;;1.00;0.80;;;9.50;99.90;;;;;;4999583;28;20030;-60
2022/09/28 08:48:43;;;;;;;2.25;0.95;;;9.50;99.90;;;;;;5002951;28;20025;-61
2022/09/28 08:51:20;;;;;;;2.20;0.90;;;9.60;99.90;;;;;;4997197;28;20041;-60
2022/09/28 08:54:04;;;;;;;1.42;1.08;;;9.60;99.90;;;;;;4999340;28;20076;-61
2022/09/28 08:56:46;;;;;;;0.90;0.90;;;9.50;99.90;;;;;;4998409;28;20142;-61
2022/09/28 08:59:30;;;;;;;2.13;1.00;;;9.50;99.90;;;;;;4998340;28;20680;-61
2022/09/28 09:02:02;;;;;;;1.92;0.80;;;9.60;99.90;;;;;;4996008;28;20535;-61
2022/09/28 09:04:29;;;;;;;0.68;0.68;;;9.70;99.90;;;;;;4997189;28;20371;-60
2022/09/28 09:07:13;;;;;;;0.82;0.70;;;9.70;99.90;;;;;;4995975;28;20030;-62
2022/09/28 09:09:47;;;;;;;1.45;0.80;;;9.70;99.90;;;;;;4998384;28;20034;-58
2022/09/28 09:12:26;;;;;;;0.60;0.60;;;9.60;99.90;;;;;;4998852;28;20054;-62
2022/09/28 09:15:19;;;;;;;0.60;0.60;;;9.60;99.90;;;;;;4998696;28;20061;-61
2022/09/28 09:18:03;;;;;;;4.60;0.60;;;9.50;99.90;;;;;;4996274;28;20026;-59
2022/09/28 09:20:49;;;;;;;3.08;0.73;;;9.50;99.90;;;;;;4998145;28;20611;-61
2022/09/28 09:23:36;;;;;;;0.93;0.60;;;9.40;99.90;;;;;;4994873;28;20029;-60
2022/09/28 09:26:17;;;;;;;0.50;0.50;;;9.30;99.90;;;;;;4997633;28;20091;-61
2022/09/28 09:28:58;;;;;;;3.08;0.82;;;9.40;99.90;;;;;;5000363;28;20030;-62
2022/09/28 09:31:42;;;;;;;0.63;0.63;;;9.50;99.90;;;;;;4999627;28;20046;-62
2022/09/28 09:34:29;;;;;;;0.98;0.60;;;9.60;99.90;;;;;;4996888;28;21212;-61
2022/09/28 09:37:23;;;;;;;0.60;0.60;;;9.90;99.90;;;;;;4997892;28;20041;-61
2022/09/28 09:40:25;;;;;;;0.60;0.60;;;10.10;99.90;;;;;;4996467;28;20025;-62
2022/09/28 09:42:53;;;;;;;0.75;0.70;;;10.20;99.90;;;;;;4995994;28;20036;-62
2022/09/28 09:45:37;;;;;;;0.70;0.70;;;10.20;99.90;;;;;;4996857;28;20030;-61
2022/09/28 09:48:19;;;;;;;0.60;0.60;;;10.10;99.90;;;;;;4995649;28;20089;-61
2022/09/28 09:50:54;;;;;;;0.80;0.75;;;10.00;99.90;;;;;;4995568;28;20114;-61
2022/09/28 09:53:26;;;;;;;1.50;1.00;;;10.00;99.90;;;;;;4997180;28;20088;-60
2022/09/28 09:56:15;;;;;;;4.60;1.20;;;9.90;99.90;;;;;;4992663;28;20034;-62
2022/09/28 09:58:49;;;;;;;1.27;1.15;;;9.90;99.90;;;;;;4996791;28;20505;-62
2022/09/28 10:01:20;;;;;;;1.38;1.10;;;9.90;99.90;;;;;;4996501;28;20041;-62
2022/09/28 10:03:47;;;;;;;1.83;1.47;;;9.90;99.90;;;;;;5002734;28;20029;-62
2022/09/28 10:06:30;;;;;;;1.40;1.17;;;10.10;99.90;;;;;;4999055;28;20018;-62
2022/09/28 10:09:05;;;;;;;2.83;1.40;;;10.30;99.90;;;;;;4999263;28;20593;-60
2022/09/28 10:11:35;;;;;;;1.55;1.17;;;10.70;99.90;;;;;;4996386;28;20053;-61
2022/09/28 10:14:07;;;;;;;1.43;1.20;;;11.00;99.90;;;;;;5000726;28;20114;-62
2022/09/28 10:16:33;;;;;;;5.05;1.65;;;11.20;99.90;;;;;;4999751;28;20046;-61
2022/09/28 10:18:59;;;;;;;10.05;2.58;;;11.30;99.90;;;;;;4997141;28;20521;-60
2022/09/28 10:21:26;;;;;;;1.67;1.58;;;11.30;99.90;;;;;;4997697;28;20030;-61
2022/09/28 10:23:58;;;;;;;5.00;1.55;;;11.20;99.90;;;;;;4997643;28;20022;-62
2022/09/28 10:26:34;;;;;;;2.33;1.63;;;11.10;99.90;;;;;;4998265;28;20069;-61
2022/09/28 10:29:03;;;;;;;1.70;1.45;;;11.00;99.90;;;;;;5000557;28;20034;-61
2022/09/28 10:31:35;;;;;;;1.90;1.77;;;10.80;99.90;;;;;;4998217;28;20746;-61
2022/09/28 10:34:02;;;;;;;2.45;1.65;;;10.60;99.90;;;;;;5001579;28;20037;-61
2022/09/28 10:36:28;;;;;;;2.38;2.03;;;10.50;99.90;;;;;;4998812;28;20038;-60
2022/09/28 10:38:54;;;;;;;2.50;1.70;;;10.40;99.90;;;;;;4997867;28;20031;-61
2022/09/28 10:41:21;;;;;;;1.98;1.80;;;10.30;99.90;;;;;;4999677;28;20458;-61
2022/09/28 10:44:05;;;;;;;2.33;1.95;;;10.20;99.90;;;;;;4999584;28;20037;-60
2022/09/28 10:46:36;;;;;;;4.53;2.22;;;10.10;99.90;;;;;;4999047;28;20029;-61
2022/09/28 10:49:05;;;;;;;;;;;10.00;99.90;;;;;;4999003;28;20161;-61
2022/09/28 10:51:42;;;;;;;2.97;2.78;;;9.90;99.90;;;;;;5000970;28;20381;-61
2022/09/28 10:54:16;;;;;;;5.20;2.92;;;9.70;99.90;;;;;;5002783;28;20037;-61
2022/09/28 10:56:43;;;;;;;3.45;3.00;;;9.70;99.90;;;;;;4997433;28;20560;-62
2022/09/28 10:59:27;;;;;;;4.00;3.05;;;9.90;99.90;;;;;;4993539;28;20037;-61
2022/09/28 11:01:56;;;;;;;3.38;2.92;;;10.20;99.90;;;;;;4999212;28;20086;-62
2022/09/28 11:04:27;;;;;;;2.72;2.53;;;10.40;99.90;;;;;;4996373;28;20040;-63
2022/09/28 11:06:59;;;;;;;4.03;3.05;;;10.50;99.90;;;;;;4999835;28;20073;-62
2022/09/28 11:09:29;;;;;;;4.22;3.70;;;10.60;99.90;;;;;;4994567;28;20102;-61
2022/09/28 11:11:57;;;;;;;2.97;2.55;;;10.70;99.90;;;;;;4996902;28;20141;-62
2022/09/28 11:14:35;;;;;;;2.55;2.35;;;10.80;99.90;;;;;;4995410;28;20034;-62
2022/09/28 11:17:22;;;;;;;4.50;3.67;;;10.80;99.90;;;;;;4997341;28;20045;-62
2022/09/28 11:19:48;;;;;;;3.03;2.72;;;10.80;99.90;;;;;;4993121;28;20058;-61
2022/09/28 11:22:31;;;;;;;2.20;2.10;;;10.80;99.90;;;;;;4996024;28;20073;-62
2022/09/28 11:25:15;;;;;;;7.70;2.20;;;10.70;99.90;;;;;;4993906;28;20049;-63
2022/09/28 11:27:55;;;;;;;3.45;1.98;;;10.60;99.90;;;;;;4998275;28;20014;-62
2022/09/28 11:30:29;;;;;;;4.38;2.67;;;10.60;99.90;;;;;;4991919;28;20108;-62
2022/09/28 11:33:17;;;;;;;2.20;2.00;;;10.80;99.90;;;;;;5004110;28;20120;-60
2022/09/28 11:35:50;;;;;;;3.45;1.77;;;10.90;99.90;;;;;;5000926;28;20030;-61
2022/09/28 11:38:34;;;;;;;2.92;1.75;;;10.90;99.90;;;;;;4996440;28;20446;-60
2022/09/28 11:41:09;;;;;;;2.47;1.95;;;10.70;99.90;;;;;;4999401;28;20030;-61
2022/09/28 11:44:01;;;;;;;2.15;1.95;;;10.60;99.90;;;;;;4999365;28;20034;-62
2022/09/28 11:46:43;;;;;;;3.15;1.88;;;10.60;99.90;;;;;;5000182;28;20209;-61
2022/09/28 11:49:47;;;;;;;2.35;1.88;;;10.90;99.90;;;;;;4998869;28;20053;-60
2022/09/28 11:52:27;;;;;;;1.40;1.25;;;11.20;99.90;;;;;;5002356;28;20022;-61
2022/09/28 11:55:16;;;;;;;1.52;1.38;;;11.30;99.90;;;;;;5000254;28;20018;-61
2022/09/28 11:57:47;;;;;;;2.10;1.90;;;11.30;99.90;;;;;;4996788;28;20065;-61
2022/09/28 12:00:23;;;;;;;1.75;1.42;;;11.20;99.90;;;;;;5000013;28;20539;-61
2022/09/28 12:03:18;;;;;;;1.50;1.40;;;11.20;99.90;;;;;;4995486;28;20026;-59
2022/09/28 12:05:49;;;;;;;1.48;1.38;;;11.30;99.90;;;;;;5000881;28;20030;-61
2022/09/28 12:08:18;;;;;;;2.08;1.50;;;11.30;99.90;;;;;;4998978;28;20064;-62
2022/09/28 12:11:00;;;;;;;1.70;1.60;;;11.40;99.90;;;;;;4998967;28;20030;-61
2022/09/28 12:13:31;;;;;;;4.30;1.58;;;11.50;99.90;;;;;;4997946;28;20034;-61
2022/09/28 12:16:03;;;;;;;3.58;1.90;;;11.60;99.90;;;;;;4996911;28;20121;-59
2022/09/28 12:18:31;;;;;;;1.50;1.40;;;11.70;99.90;;;;;;4997796;28;20022;-61
2022/09/28 12:21:34;;;;;;;2.13;1.42;;;11.90;99.90;;;;;;4999885;28;20029;-62
2022/09/28 12:24:23;;;;;;;1.95;1.40;;;11.90;99.90;;;;;;4996672;28;20671;-61
2022/09/28 12:27:03;;;;;;;1.90;1.52;;;12.00;99.90;;;;;;4976068;28;20495;-61
2022/09/28 12:29:56;;;;;;;2.30;1.23;;;12.10;99.90;;;;;;4979472;28;20042;-61
2022/09/28 12:32:41;;;;;;;4.10;1.52;;;12.10;99.90;;;;;;4977962;28;20031;-61
2022/09/28 12:35:32;;;;;;;2.97;1.10;;;11.90;99.90;;;;;;4977234;28;20030;-61
2022/09/28 12:38:28;;;;;;;1.75;1.13;;;11.50;99.90;;;;;;4976431;28;20031;-60
2022/09/28 12:41:21;;;;;;;1.90;1.50;;;11.20;99.90;;;;;;4977438;28;20027;-61
2022/09/28 12:43:53;;;;;;;1.75;1.50;;;10.90;99.90;;;;;;4979188;28;20093;-60
2022/09/28 12:46:47;;;;;;;2.10;1.90;;;10.60;99.90;;;;;;4979621;28;20621;-62
2022/09/28 12:49:28;;;;;;;6.35;5.85;;;10.20;99.90;;;;;;4978192;28;20109;-62
2022/09/28 12:51:59;;;;;;;4.82;3.72;;;10.00;99.90;;;;;;4997628;28;20030;-63
2022/09/28 12:55:02;;;;;;;2.85;2.65;;;9.90;99.90;;;;;;4979969;28;20077;-62
2022/09/28 12:57:57;;;;;;;3.33;3.03;;;9.80;99.90;;;;;;4996663;28;20081;-62
2022/09/28 13:00:27;;;;;;;4.00;3.28;;;9.90;99.90;;;;;;5000995;28;20034;-63
2022/09/28 13:03:15;;;;;;;7.70;3.70;;;9.90;99.90;;;;;;4994387;28;20022;-63
2022/09/28 13:06:05;;;;;;;3.35;3.00;;;10.00;99.90;;;;;;4996537;28;20030;-62
2022/09/28 13:08:55;;;;;;;4.70;3.25;;;10.00;99.90;;;;;;4997432;28;20038;-62
2022/09/28 13:11:30;;;;;;;4.55;3.53;;;10.10;99.90;;;;;;5000216;28;20088;-61
2022/09/28 13:14:45;;;;;;;4.15;3.75;;;10.30;99.90;;;;;;4995253;28;20027;-62
2022/09/28 13:17:52;;;;;;;2.40;2.20;;;10.10;99.90;;;;;;4991087;28;20041;-62
2022/09/28 13:20:38;;;;;;;3.83;3.22;;;10.10;99.90;;;;;;4990114;28;20042;-61
2022/09/28 13:23:10;;;;;;;3.10;2.90;;;10.20;99.90;;;;;;4994380;28;20030;-62
2022/09/28 13:25:41;;;;;;;3.42;3.22;;;10.30;99.90;;;;;;4998837;28;20026;-61
2022/09/28 13:28:14;;;;;;;3.92;3.53;;;10.40;99.90;;;;;;5010749;28;20509;-61
2022/09/28 13:30:42;;;;;;;4.00;3.25;;;10.50;99.90;;;;;;4993685;28;20030;-62